createdAt,value
2022-12-09T00:00:38.346Z,21.42
2022-12-09T00:03:41.110Z,20.92
2022-12-09T00:06:42.907Z,23.00
2022-12-09T00:09:44.583Z,21.30
2022-12-09T00:12:46.334Z,21.17
2022-12-09T00:15:48.175Z,21.50
2022-12-09T00:18:50.564Z,20.70
2022-12-09T00:21:52.414Z,21.05
2022-12-09T00:24:54.299Z,20.08
2022-12-09T00:27:56.135Z,23.00
2022-12-09T00:31:02.396Z,21.30
2022-12-09T00:34:08.578Z,22.45
2022-12-09T00:37:10.184Z,21.23
2022-12-09T00:40:12.914Z,22.20
2022-12-09T00:43:14.569Z,23.42
2022-12-09T00:46:16.713Z,23.33
2022-12-09T00:49:18.670Z,23.75
2022-12-09T00:52:20.583Z,23.40
2022-12-09T00:55:22.361Z,23.55
2022-12-09T00:58:24.994Z,24.40
2022-12-09T01:01:28.040Z,23.20
2022-12-09T01:04:30.064Z,24.45
2022-12-09T01:07:31.773Z,23.80
2022-12-09T01:10:34.694Z,23.12
2022-12-09T01:13:36.294Z,23.98
2022-12-09T01:16:38.242Z,25.17
2022-12-09T01:19:40.869Z,23.50
2022-12-09T01:22:42.608Z,21.75
2022-12-09T01:25:44.242Z,22.13
2022-12-09T01:28:46.977Z,22.00
2022-12-09T01:31:48.645Z,22.77
2022-12-09T01:34:50.578Z,21.83
2022-12-09T01:37:52.186Z,23.23
2022-12-09T01:40:53.789Z,22.80
2022-12-09T01:44:17.010Z,22.15
2022-12-09T01:47:23.028Z,21.95
2022-12-09T01:50:26.580Z,21.50
2022-12-09T01:53:35.567Z,22.50
2022-12-09T01:56:38.082Z,21.77
2022-12-09T01:59:40.367Z,23.60
2022-12-09T02:02:45.581Z,23.60
2022-12-09T02:05:47.938Z,22.70
2022-12-09T02:08:50.814Z,22.62
2022-12-09T02:11:52.427Z,22.55
2022-12-09T02:15:29.790Z,22.67
2022-12-09T02:18:40.506Z,23.30
2022-12-09T02:21:50.318Z,26.90
2022-12-09T02:25:03.971Z,25.45
2022-12-09T02:28:24.652Z,25.15
2022-12-09T02:31:35.849Z,25.62
2022-12-09T02:34:44.402Z,26.85
2022-12-09T02:37:59.111Z,28.62
2022-12-09T02:41:05.433Z,27.55
2022-12-09T02:44:15.882Z,27.42
2022-12-09T02:47:24.528Z,27.80
2022-12-09T02:50:30.523Z,25.85
2022-12-09T02:53:35.004Z,26.20
2022-12-09T02:56:38.117Z,23.38
2022-12-09T02:59:40.014Z,26.85
2022-12-09T03:02:45.860Z,25.65
2022-12-09T03:06:00.169Z,28.27
2022-12-09T03:09:11.163Z,27.27
2022-12-09T03:12:18.978Z,24.98
2022-12-09T03:18:27.982Z,22.85
2022-12-09T03:21:32.851Z,23.75
2022-12-09T03:24:52.429Z,23.85
2022-12-09T03:28:02.520Z,22.40
2022-12-09T03:31:07.417Z,21.37
2022-12-09T03:34:13.983Z,24.37
2022-12-09T03:37:18.950Z,25.33
2022-12-09T03:40:27.642Z,23.52
2022-12-09T03:43:34.854Z,21.83
2022-12-09T03:46:36.984Z,22.62
2022-12-09T03:49:39.780Z,26.73
2022-12-09T03:52:51.297Z,22.42
2022-12-09T03:56:23.696Z,21.85
2022-12-09T03:59:29.379Z,23.33
2022-12-09T04:02:31.345Z,22.85
2022-12-09T04:05:33.233Z,24.63
2022-12-09T04:08:34.969Z,24.70
2022-12-09T04:11:36.753Z,23.20
2022-12-09T04:14:38.524Z,24.10
2022-12-09T04:17:40.258Z,23.83
2022-12-09T04:20:42.037Z,23.25
2022-12-09T04:23:43.749Z,22.40
2022-12-09T04:26:45.954Z,23.62
2022-12-09T04:29:47.610Z,22.55
2022-12-09T04:32:49.380Z,24.55
2022-12-09T04:35:51.087Z,24.23
2022-12-09T04:38:52.937Z,23.77
2022-12-09T04:41:54.707Z,22.87
2022-12-09T04:44:56.635Z,24.08
2022-12-09T04:47:59.571Z,23.77
2022-12-09T04:51:01.551Z,23.65
2022-12-09T04:54:03.248Z,25.40
2022-12-09T04:57:04.941Z,25.00
2022-12-09T05:00:12.789Z,25.98
2022-12-09T05:03:14.992Z,25.58
2022-12-09T05:06:18.472Z,28.17
2022-12-09T05:09:20.319Z,28.95
2022-12-09T05:12:22.085Z,32.95
2022-12-09T05:15:23.841Z,31.75
2022-12-09T05:18:25.807Z,28.12
2022-12-09T05:21:27.675Z,27.87
2022-12-09T05:24:29.615Z,26.02
2022-12-09T05:27:31.392Z,25.98
2022-12-09T05:30:33.089Z,27.45
2022-12-09T05:33:35.188Z,24.35
2022-12-09T05:36:37.099Z,25.05
2022-12-09T05:39:39.188Z,24.83
2022-12-09T05:42:42.099Z,24.08
2022-12-09T05:45:44.428Z,24.60
2022-12-09T05:48:46.236Z,24.30
2022-12-09T05:51:48.502Z,24.00
2022-12-09T05:54:50.576Z,25.85
2022-12-09T05:57:52.268Z,25.65
2022-12-09T06:00:56.722Z,25.52
2022-12-09T06:03:59.053Z,24.37
2022-12-09T06:07:01.354Z,25.12
2022-12-09T06:10:05.160Z,25.17
2022-12-09T06:13:08.618Z,25.48
2022-12-09T06:16:11.391Z,26.15
2022-12-09T06:19:13.268Z,26.70
2022-12-09T06:22:16.244Z,26.37
2022-12-09T06:25:17.969Z,24.98
2022-12-09T06:28:20.285Z,25.52
2022-12-09T06:31:23.025Z,25.27
2022-12-09T06:34:25.408Z,24.87
2022-12-09T06:37:27.466Z,25.30
2022-12-09T06:40:29.545Z,25.12
2022-12-09T06:43:31.251Z,26.67
2022-12-09T06:46:33.115Z,25.80
2022-12-09T06:49:35.532Z,27.27
2022-12-09T06:52:38.297Z,26.87
2022-12-09T06:55:40.345Z,26.33
2022-12-09T06:58:43.760Z,29.33
2022-12-09T07:01:46.030Z,30.83
2022-12-09T07:04:55.715Z,29.73
2022-12-09T07:07:58.269Z,27.02
2022-12-09T07:11:00.373Z,27.08
2022-12-09T07:14:02.288Z,27.92
2022-12-09T07:17:04.696Z,27.60
2022-12-09T07:20:08.198Z,27.67
2022-12-09T07:23:10.267Z,28.05
2022-12-09T07:26:12.521Z,27.62
2022-12-09T07:29:14.645Z,28.90
2022-12-09T07:32:16.522Z,28.60
2022-12-09T07:35:18.704Z,28.77
2022-12-09T07:38:20.698Z,29.27
2022-12-09T07:41:22.502Z,30.42
2022-12-09T07:44:28.210Z,29.70
2022-12-09T07:47:30.307Z,28.23
2022-12-09T07:50:32.535Z,29.27
2022-12-09T07:53:35.939Z,28.98
2022-12-09T07:56:37.918Z,26.58
2022-12-09T07:59:39.734Z,27.23
2022-12-09T08:02:41.630Z,27.45
2022-12-09T08:05:47.958Z,28.62
2022-12-09T08:08:50.472Z,29.80
2022-12-09T08:11:52.638Z,28.92
2022-12-09T08:14:54.754Z,30.58
2022-12-09T08:17:57.307Z,31.27
2022-12-09T08:21:00.282Z,32.10
2022-12-09T08:24:06.109Z,33.10
2022-12-09T08:27:08.253Z,30.20
2022-12-09T08:30:10.992Z,27.87
2022-12-09T08:33:13.154Z,27.40
2022-12-09T08:36:33.151Z,25.62
2022-12-09T08:39:35.003Z,25.70
2022-12-09T08:42:37.310Z,27.35
2022-12-09T08:45:41.036Z,25.50
2022-12-09T08:48:43.755Z,27.48
2022-12-09T08:51:47.525Z,26.17
2022-12-09T08:54:49.412Z,26.48
2022-12-09T08:57:51.364Z,27.58
2022-12-09T09:00:53.470Z,25.88
2022-12-09T09:03:55.696Z,26.60
2022-12-09T09:06:57.966Z,24.48
2022-12-09T09:10:01.523Z,24.55
2022-12-09T09:13:03.653Z,25.80
2022-12-09T09:16:09.495Z,26.62
2022-12-09T09:19:20.821Z,26.42
2022-12-09T09:22:23.020Z,24.80
2022-12-09T09:25:24.884Z,25.52
2022-12-09T09:28:30.935Z,24.05
2022-12-09T09:31:34.435Z,29.23
2022-12-09T09:34:37.047Z,28.62
2022-12-09T09:37:38.969Z,25.30
2022-12-09T09:40:42.309Z,28.10
2022-12-09T09:43:44.608Z,30.02
2022-12-09T09:46:48.917Z,28.02
2022-12-09T09:49:58.885Z,26.73
2022-12-09T09:53:11.637Z,25.77
2022-12-09T09:56:35.321Z,25.90
2022-12-09T10:00:22.919Z,24.73
2022-12-09T10:03:50.510Z,24.77
2022-12-09T10:07:28.361Z,24.48
2022-12-09T10:10:45.759Z,22.75
2022-12-09T10:13:59.512Z,22.80
2022-12-09T10:17:35.093Z,19.87
2022-12-09T10:20:37.828Z,20.05
2022-12-09T10:23:40.353Z,19.67
2022-12-09T10:26:42.606Z,21.17
2022-12-09T10:29:55.840Z,19.17
2022-12-09T10:32:57.873Z,19.85
2022-12-09T10:36:00.136Z,19.58
2022-12-09T10:39:02.382Z,21.25
2022-12-09T10:42:34.631Z,20.25
2022-12-09T10:46:21.203Z,18.17
2022-12-09T10:49:23.827Z,18.55
2022-12-09T10:52:29.813Z,17.00
2022-12-09T10:55:36.535Z,20.00
2022-12-09T10:58:38.635Z,18.00
2022-12-09T11:02:00.111Z,18.58
2022-12-09T11:05:29.881Z,16.55
2022-12-09T11:11:45.694Z,27.67
2022-12-09T11:14:56.958Z,22.50
2022-12-09T11:18:06.194Z,18.05
2022-12-09T11:21:28.900Z,21.90
2022-12-09T11:24:31.051Z,17.95
2022-12-09T11:27:34.714Z,21.80
2022-12-09T11:30:57.798Z,18.45
2022-12-09T11:34:14.329Z,18.50
2022-12-09T11:37:16.089Z,17.90
2022-12-09T11:40:19.376Z,17.62
2022-12-09T11:43:22.485Z,16.95
2022-12-09T11:46:27.690Z,16.02
2022-12-09T11:49:34.741Z,17.77
2022-12-09T11:52:36.347Z,16.27
2022-12-09T11:55:44.567Z,15.77
2022-12-09T11:59:09.046Z,15.57
2022-12-09T12:02:29.056Z,15.43
2022-12-09T12:05:39.250Z,15.75
2022-12-09T12:08:46.507Z,14.52
2022-12-09T12:12:04.899Z,17.42
2022-12-09T12:15:16.290Z,15.07
2022-12-09T12:18:22.948Z,16.10
2022-12-09T12:21:53.849Z,16.73
2022-12-09T12:25:21.843Z,15.20
2022-12-09T12:28:42.615Z,15.80
2022-12-09T12:32:02.541Z,15.68
2022-12-09T12:35:30.613Z,17.37
2022-12-09T12:38:59.462Z,14.77
2022-12-09T12:42:34.460Z,14.70
2022-12-09T12:46:19.690Z,15.95
2022-12-09T12:49:45.916Z,18.95
2022-12-09T12:53:04.273Z,16.02
2022-12-09T12:56:14.288Z,15.35
2022-12-09T12:59:36.199Z,14.20
2022-12-09T13:02:41.644Z,16.60
2022-12-09T13:05:47.405Z,16.70
2022-12-09T13:09:01.339Z,15.52
2022-12-09T13:12:13.101Z,17.60
2022-12-09T13:15:18.112Z,16.48
2022-12-09T13:18:31.434Z,16.33
2022-12-09T13:21:33.833Z,15.98
2022-12-09T13:24:44.051Z,15.63
2022-12-09T13:27:59.154Z,15.05
2022-12-09T13:31:01.485Z,16.73
2022-12-09T13:34:22.901Z,16.48
2022-12-09T13:37:30.459Z,17.10
2022-12-09T13:43:33.763Z,17.70
2022-12-09T13:46:35.941Z,18.62
2022-12-09T13:49:39.276Z,16.77
2022-12-09T13:52:48.837Z,16.17
2022-12-09T13:55:53.186Z,17.90
2022-12-09T13:59:22.732Z,18.75
2022-12-09T14:02:53.546Z,18.12
2022-12-09T14:05:58.796Z,18.42
2022-12-09T14:09:06.425Z,17.85
2022-12-09T14:12:12.578Z,20.35
2022-12-09T14:15:23.273Z,18.65
2022-12-09T14:18:32.870Z,17.60
2022-12-09T14:21:34.891Z,16.80
2022-12-09T14:24:37.153Z,19.77
2022-12-09T14:27:38.745Z,19.27
2022-12-09T14:30:46.421Z,20.35
2022-12-09T14:33:48.192Z,21.65
2022-12-09T14:37:05.396Z,15.98
2022-12-09T14:40:34.888Z,17.00
2022-12-09T14:43:55.304Z,17.90
2022-12-09T14:47:27.238Z,18.62
2022-12-09T14:50:29.252Z,17.10
2022-12-09T14:53:34.287Z,18.37
2022-12-09T14:56:36.038Z,16.80
2022-12-09T14:59:49.206Z,18.40
2022-12-09T15:03:23.044Z,16.17
2022-12-09T15:06:18.620Z,17.80
2022-12-09T15:09:20.406Z,19.02
2022-12-09T15:12:32.540Z,19.42
2022-12-09T15:15:37.245Z,32.38
2022-12-09T15:18:42.072Z,20.98
2022-12-09T15:21:47.399Z,17.95
2022-12-09T15:24:50.993Z,18.58
2022-12-09T15:28:05.566Z,18.92
2022-12-09T15:31:18.769Z,19.92
2022-12-09T15:34:26.544Z,20.40
2022-12-09T15:37:29.024Z,20.85
2022-12-09T15:40:35.937Z,17.90
2022-12-09T15:43:40.281Z,19.50
2022-12-09T15:46:45.391Z,20.05
2022-12-09T15:50:15.563Z,20.60
2022-12-09T15:53:28.085Z,24.30
2022-12-09T15:56:41.391Z,26.52
2022-12-09T15:59:49.680Z,27.40
2022-12-09T16:02:54.398Z,23.95
2022-12-09T16:06:01.607Z,21.87
2022-12-09T16:09:13.272Z,25.02
2022-12-09T16:12:32.864Z,35.35
2022-12-09T16:15:54.615Z,44.35
2022-12-09T16:18:56.994Z,29.85
2022-12-09T16:22:15.758Z,30.08
2022-12-09T16:25:28.136Z,24.00
2022-12-09T16:28:32.074Z,24.40
2022-12-09T16:31:34.933Z,23.25
2022-12-09T16:34:37.505Z,23.95
2022-12-09T16:38:04.613Z,22.52
2022-12-09T16:41:10.498Z,24.65
2022-12-09T16:44:30.782Z,27.50
2022-12-09T16:47:33.449Z,26.40
2022-12-09T16:51:06.658Z,27.35
2022-12-09T16:54:20.145Z,70.62
2022-12-09T16:57:24.073Z,28.58
2022-12-09T17:00:26.773Z,28.25
2022-12-09T17:03:40.074Z,29.92
2022-12-09T17:06:42.582Z,27.58
2022-12-09T17:09:45.117Z,26.98
2022-12-09T17:12:48.009Z,30.23
2022-12-09T17:15:55.100Z,26.87
2022-12-09T17:18:57.351Z,27.85
2022-12-09T17:21:59.351Z,27.98
2022-12-09T17:25:01.751Z,28.52
2022-12-09T17:28:06.256Z,34.25
2022-12-09T17:31:11.339Z,26.95
2022-12-09T17:34:14.050Z,26.00
2022-12-09T17:37:17.036Z,26.92
2022-12-09T17:40:20.935Z,25.75
2022-12-09T17:43:23.571Z,27.45
2022-12-09T17:46:31.511Z,26.42
2022-12-09T17:49:34.075Z,27.87
2022-12-09T17:52:35.977Z,25.90
2022-12-09T17:55:39.216Z,27.52
2022-12-09T17:58:42.287Z,29.70
2022-12-09T18:01:47.573Z,26.65
2022-12-09T18:04:49.539Z,36.35
2022-12-09T18:07:51.458Z,34.40
2022-12-09T18:10:53.405Z,33.83
2022-12-09T18:13:56.129Z,31.12
2022-12-09T18:16:57.872Z,30.55
2022-12-09T18:20:01.615Z,34.95
2022-12-09T18:23:03.600Z,33.20
2022-12-09T18:26:09.941Z,27.75
2022-12-09T18:29:12.828Z,27.15
2022-12-09T18:32:15.342Z,28.90
2022-12-09T18:35:17.349Z,31.05
2022-12-09T18:38:20.932Z,28.60
2022-12-09T18:41:27.934Z,33.65
2022-12-09T18:44:29.736Z,36.90
2022-12-09T18:47:31.504Z,33.40
2022-12-09T18:50:37.328Z,32.13
2022-12-09T18:53:39.447Z,28.75
2022-12-09T18:56:41.399Z,23.50
2022-12-09T18:59:43.421Z,29.95
2022-12-09T19:02:46.498Z,29.10
2022-12-09T19:05:48.403Z,26.05
2022-12-09T19:08:56.280Z,24.58
2022-12-09T19:12:11.300Z,26.90
2022-12-09T19:15:21.161Z,30.27
2022-12-09T19:18:23.563Z,24.67
2022-12-09T19:21:27.798Z,25.25
2022-12-09T19:24:33.058Z,24.75
2022-12-09T19:27:36.141Z,25.02
2022-12-09T19:30:38.580Z,22.98
2022-12-09T19:33:44.073Z,25.05
2022-12-09T19:36:48.242Z,24.75
2022-12-09T19:39:50.981Z,25.20
2022-12-09T19:42:54.777Z,23.08
2022-12-09T19:46:04.208Z,27.87
2022-12-09T19:49:07.221Z,26.83
2022-12-09T19:52:09.527Z,23.85
2022-12-09T19:55:13.919Z,24.10
2022-12-09T19:58:16.265Z,27.92
2022-12-09T20:01:18.279Z,22.77
2022-12-09T20:04:48.032Z,23.90
2022-12-09T20:07:45.670Z,22.58
2022-12-09T20:10:48.722Z,22.65
2022-12-09T20:14:00.785Z,21.10
2022-12-09T20:17:02.952Z,21.30
2022-12-09T20:20:06.227Z,22.70
2022-12-09T20:23:08.626Z,22.33
2022-12-09T20:26:20.194Z,23.30
2022-12-09T20:29:22.618Z,24.08
2022-12-09T20:32:26.186Z,24.35
2022-12-09T20:35:28.761Z,22.15
2022-12-09T20:38:31.672Z,21.37
2022-12-09T20:41:34.401Z,23.25
2022-12-09T20:44:36.960Z,22.08
2022-12-09T20:47:40.545Z,20.65
2022-12-09T20:50:43.866Z,19.62
2022-12-09T20:53:47.889Z,18.48
2022-12-09T20:56:50.811Z,18.85
2022-12-09T20:59:53.189Z,18.37
2022-12-09T21:02:57.058Z,18.35
2022-12-09T21:05:59.707Z,19.15
2022-12-09T21:09:05.312Z,18.85
2022-12-09T21:12:08.042Z,18.65
2022-12-09T21:15:12.195Z,18.98
2022-12-09T21:18:15.905Z,19.02
2022-12-09T21:21:19.546Z,19.90
2022-12-09T21:24:24.431Z,19.62
2022-12-09T21:27:27.049Z,19.87
2022-12-09T21:30:29.443Z,18.25
2022-12-09T21:33:31.929Z,19.17
2022-12-09T21:36:39.829Z,20.92
2022-12-09T21:39:42.540Z,21.70
2022-12-09T21:42:46.325Z,21.90
2022-12-09T21:45:48.511Z,22.73
2022-12-09T21:48:52.796Z,21.92
2022-12-09T21:51:55.917Z,23.65
2022-12-09T21:54:59.435Z,23.70
2022-12-09T21:58:01.172Z,21.80
2022-12-09T22:01:15.426Z,20.10
2022-12-09T22:04:17.880Z,19.55
2022-12-09T22:07:20.380Z,20.80
2022-12-09T22:10:22.066Z,19.23
2022-12-09T22:13:24.264Z,21.10
2022-12-09T22:16:28.991Z,44.80
2022-12-09T22:19:30.796Z,26.08
2022-12-09T22:22:32.469Z,20.33
2022-12-09T22:25:34.088Z,23.02
2022-12-09T22:28:36.588Z,22.17
2022-12-09T22:31:39.276Z,21.58
2022-12-09T22:34:41.002Z,19.70
2022-12-09T22:37:43.991Z,19.52
2022-12-09T22:40:46.046Z,21.67
2022-12-09T22:43:49.101Z,16.60
2022-12-09T22:46:50.843Z,19.95
2022-12-09T22:49:52.509Z,19.50
2022-12-09T22:52:55.161Z,15.50
2022-12-09T22:55:56.773Z,15.32
2022-12-09T22:58:59.977Z,13.80
2022-12-09T23:02:01.614Z,13.32
2022-12-09T23:05:03.340Z,13.15
2022-12-09T23:08:05.484Z,12.93
2022-12-09T23:11:18.632Z,13.23
2022-12-09T23:14:20.970Z,13.93
2022-12-09T23:17:22.585Z,12.82
2022-12-09T23:20:24.358Z,13.30
2022-12-09T23:23:25.969Z,13.50
2022-12-09T23:26:29.470Z,13.20
2022-12-09T23:29:31.106Z,13.43
2022-12-09T23:32:32.752Z,12.45
2022-12-09T23:35:38.707Z,12.18
2022-12-09T23:38:41.174Z,11.85
2022-12-09T23:41:44.437Z,12.57
2022-12-09T23:44:46.187Z,12.15
2022-12-09T23:47:47.798Z,12.37
2022-12-09T23:50:49.401Z,13.62
2022-12-09T23:53:53.919Z,11.95
2022-12-09T23:56:55.578Z,12.10
2022-12-09T23:59:59.653Z,12.25
